Time;durP1;ratioP1;P1;durP2;ratioP2;P2;SDS_P1;SDS_P2;PMS_P1;PMS_P2;Temp;Humidity;BMP_temperature;BMP_pressure;BME280_temperature;BME280_humidity;BME280_pressure;Samples;Min_cycle;Max_cycle;Signal;HPM_P1;HPM_P2
2021/05/07 00:01:05;;;;;;;2.08;0.22;;;8.80;99.90;;;;;;4965593;28;20075;-75
2021/05/07 00:03:31;;;;;;;0.20;0.20;;;8.80;99.90;;;;;;4979576;28;20527;-76
2021/05/07 00:05:57;;;;;;;1.00;0.30;;;8.80;99.90;;;;;;4976028;28;20102;-75
2021/05/07 00:08:27;;;;;;;1.17;0.50;;;8.90;99.90;;;;;;4960881;28;20138;-76
2021/05/07 00:10:57;;;;;;;1.05;0.30;;;8.90;99.90;;;;;;4955585;28;20088;-75
2021/05/07 00:13:22;;;;;;;0.80;0.40;;;8.90;99.90;;;;;;4965352;28;20106;-75
2021/05/07 00:15:48;;;;;;;1.15;0.30;;;8.90;99.90;;;;;;4966750;28;20091;-76
2021/05/07 00:18:15;;;;;;;2.88;0.50;;;9.00;99.90;;;;;;4964486;28;20080;-76
2021/05/07 00:20:41;;;;;;;2.05;0.70;;;9.00;99.90;;;;;;4959169;28;20599;-75
2021/05/07 00:23:06;;;;;;;1.83;0.55;;;9.00;99.90;;;;;;4956756;28;20087;-76
2021/05/07 00:25:32;;;;;;;3.20;0.30;;;9.00;99.90;;;;;;4968094;28;20161;-75
2021/05/07 00:28:09;;;;;;;2.00;0.52;;;9.00;99.90;;;;;;4959808;28;20103;-75
2021/05/07 00:30:36;;;;;;;1.45;0.30;;;9.00;99.90;;;;;;4960746;28;20553;-75
2021/05/07 00:33:04;;;;;;;0.60;0.22;;;9.00;99.90;;;;;;4967539;28;20076;-75
2021/05/07 00:35:29;;;;;;;4.03;0.52;;;9.00;99.90;;;;;;4966164;28;20095;-75
2021/05/07 00:37:55;;;;;;;1.98;0.40;;;9.10;99.90;;;;;;4960273;28;20068;-76
2021/05/07 00:40:23;;;;;;;4.65;0.32;;;9.10;99.90;;;;;;4958656;28;20075;-75
2021/05/07 00:42:48;;;;;;;2.00;0.40;;;9.10;99.90;;;;;;4959000;28;20077;-76
2021/05/07 00:45:15;;;;;;;0.55;0.10;;;9.10;99.90;;;;;;4965882;28;20487;-75
2021/05/07 00:47:57;;;;;;;0.25;0.10;;;9.10;99.90;;;;;;4957801;28;20072;-75
2021/05/07 00:50:30;;;;;;;0.80;0.40;;;9.00;99.90;;;;;;4955643;28;20154;-76
2021/05/07 00:52:58;;;;;;;3.17;0.43;;;9.00;99.90;;;;;;4960824;28;20083;-75
2021/05/07 00:55:25;;;;;;;1.02;0.28;;;9.00;99.90;;;;;;4961256;28;20078;-75
2021/05/07 00:57:51;;;;;;;0.88;0.20;;;9.00;99.90;;;;;;4952239;28;20071;-75
2021/05/07 01:00:17;;;;;;;0.65;0.30;;;9.00;99.90;;;;;;4957256;28;20574;-75
2021/05/07 01:02:43;;;;;;;0.38;0.10;;;9.00;99.90;;;;;;4967665;28;20088;-75
2021/05/07 01:05:09;;;;;;;1.52;0.30;;;9.00;99.90;;;;;;4961947;28;20483;-75
2021/05/07 01:07:36;;;;;;;0.73;0.20;;;8.90;99.90;;;;;;4982688;28;20079;-75
2021/05/07 01:10:07;;;;;;;0.38;0.17;;;8.90;99.90;;;;;;4964264;28;20091;-75
2021/05/07 01:12:34;;;;;;;1.05;0.32;;;8.90;99.90;;;;;;4947450;28;20095;-75
2021/05/07 01:15:07;;;;;;;1.67;0.30;;;8.80;99.90;;;;;;4972724;28;20076;-75
2021/05/07 01:17:37;;;;;;;0.75;0.20;;;8.80;99.90;;;;;;4972257;28;20163;-76
2021/05/07 01:20:11;;;;;;;0.20;0.10;;;8.80;99.90;;;;;;4972860;28;20102;-75
2021/05/07 01:22:38;;;;;;;0.38;0.20;;;8.80;99.90;;;;;;4954196;28;20079;-76
2021/05/07 01:25:05;;;;;;;1.17;0.20;;;8.80;99.90;;;;;;4955354;28;20086;-76
2021/05/07 01:27:36;;;;;;;0.80;0.20;;;8.80;99.90;;;;;;4952622;28;20178;-76
2021/05/07 01:30:06;;;;;;;0.47;0.20;;;8.70;99.90;;;;;;4970029;28;20100;-76
2021/05/07 01:32:32;;;;;;;1.02;0.10;;;8.70;99.90;;;;;;4951944;28;20084;-76
2021/05/07 01:34:57;;;;;;;1.95;0.20;;;8.70;99.90;;;;;;4972504;28;20083;-76
2021/05/07 01:37:23;;;;;;;0.38;0.10;;;8.70;99.90;;;;;;4962555;28;20104;-75
2021/05/07 01:39:48;;;;;;;1.25;0.20;;;8.70;99.90;;;;;;4959391;28;20158;-75
2021/05/07 01:42:14;;;;;;;0.68;0.20;;;8.70;99.90;;;;;;4968575;28;20084;-75
2021/05/07 01:44:40;;;;;;;0.50;0.10;;;8.70;99.90;;;;;;4958332;28;20130;-75
2021/05/07 01:47:05;;;;;;;0.20;0.10;;;8.80;99.90;;;;;;4960885;28;20075;-75
2021/05/07 01:49:31;;;;;;;0.55;0.20;;;8.80;99.90;;;;;;4955940;28;20130;-76
2021/05/07 01:51:56;;;;;;;0.47;0.10;;;8.80;99.90;;;;;;4955045;28;20090;-75
2021/05/07 01:54:22;;;;;;;0.50;0.20;;;8.80;99.90;;;;;;4966480;28;20111;-75
2021/05/07 01:56:47;;;;;;;0.32;0.10;;;8.90;99.90;;;;;;4968753;28;20099;-76
2021/05/07 01:59:13;;;;;;;1.13;0.60;;;8.90;99.90;;;;;;4969104;28;20087;-75
2021/05/07 02:01:38;;;;;;;0.63;0.20;;;8.90;99.90;;;;;;4959728;28;20080;-75
2021/05/07 02:04:04;;;;;;;1.67;0.17;;;8.90;99.90;;;;;;4964827;28;20456;-76
2021/05/07 02:06:29;;;;;;;0.38;0.10;;;8.90;99.90;;;;;;4970043;28;20158;-75
2021/05/07 02:08:55;;;;;;;0.55;0.22;;;8.90;99.90;;;;;;4954572;28;20625;-75
2021/05/07 02:11:21;;;;;;;1.67;0.38;;;8.90;99.90;;;;;;4952134;28;20083;-75
2021/05/07 02:13:46;;;;;;;0.20;0.10;;;8.80;99.90;;;;;;4942946;29;20084;-75
2021/05/07 02:16:13;;;;;;;1.27;0.10;;;8.80;99.90;;;;;;4955731;28;20142;-76
2021/05/07 02:18:39;;;;;;;1.15;0.20;;;8.90;99.90;;;;;;4954973;28;20138;-75
2021/05/07 02:21:05;;;;;;;0.40;0.20;;;8.90;99.90;;;;;;4955115;28;20080;-76
2021/05/07 02:23:31;;;;;;;1.10;0.25;;;8.80;99.90;;;;;;4963751;28;20079;-76
2021/05/07 02:25:57;;;;;;;0.65;0.22;;;8.80;99.90;;;;;;4965004;28;20852;-75
2021/05/07 02:28:23;;;;;;;0.20;0.10;;;8.80;99.90;;;;;;4960009;28;20083;-75
2021/05/07 02:30:48;;;;;;;0.45;0.20;;;8.80;99.90;;;;;;4965310;28;20189;-75
2021/05/07 02:33:14;;;;;;;0.88;0.20;;;8.80;99.90;;;;;;4952577;28;20091;-75
2021/05/07 02:35:39;;;;;;;0.70;0.20;;;8.80;99.90;;;;;;4959935;28;20099;-76
2021/05/07 02:38:05;;;;;;;0.85;0.25;;;8.80;99.90;;;;;;4951080;28;20459;-76
2021/05/07 02:40:31;;;;;;;0.22;0.10;;;8.80;99.90;;;;;;4955949;28;20082;-75
2021/05/07 02:42:56;;;;;;;0.50;0.20;;;8.80;99.90;;;;;;4954374;28;20086;-76
2021/05/07 02:45:22;;;;;;;0.55;0.20;;;8.80;99.90;;;;;;4951261;28;20553;-75
2021/05/07 02:47:47;;;;;;;2.63;0.28;;;8.90;99.90;;;;;;4950278;28;20072;-75
2021/05/07 02:50:13;;;;;;;1.27;0.43;;;8.80;99.90;;;;;;4951755;28;20123;-75
2021/05/07 02:52:40;;;;;;;0.57;0.17;;;8.90;99.90;;;;;;4948473;28;20447;-75
2021/05/07 02:55:07;;;;;;;1.77;0.38;;;8.80;99.90;;;;;;4956410;28;20067;-75
2021/05/07 02:57:33;;;;;;;0.70;0.30;;;8.80;99.90;;;;;;4949298;28;20098;-76
2021/05/07 02:59:58;;;;;;;1.40;0.32;;;8.80;99.90;;;;;;4950040;28;20106;-75
2021/05/07 03:02:24;;;;;;;0.95;0.20;;;8.80;99.90;;;;;;4951261;28;20452;-75
2021/05/07 03:04:49;;;;;;;2.13;0.40;;;8.80;99.90;;;;;;4950868;28;20091;-75
2021/05/07 03:07:15;;;;;;;1.20;0.22;;;8.80;99.90;;;;;;4949014;28;20447;-75
2021/05/07 03:09:41;;;;;;;0.93;0.20;;;8.80;99.90;;;;;;4933266;29;20095;-76
2021/05/07 03:12:07;;;;;;;0.30;0.20;;;8.80;99.90;;;;;;4952431;28;20536;-75
2021/05/07 03:14:33;;;;;;;0.40;0.20;;;8.80;99.90;;;;;;4951656;28;20083;-75
2021/05/07 03:16:58;;;;;;;0.70;0.47;;;8.80;99.90;;;;;;4949905;28;20113;-75
2021/05/07 03:19:24;;;;;;;2.70;0.50;;;8.80;99.90;;;;;;4950061;28;20556;-75
2021/05/07 03:21:49;;;;;;;0.73;0.32;;;8.80;99.90;;;;;;4951998;28;20417;-76
2021/05/07 03:24:15;;;;;;;1.02;0.47;;;8.70;99.90;;;;;;4952989;28;20536;-75
2021/05/07 03:26:41;;;;;;;1.42;0.40;;;8.70;99.90;;;;;;4954239;28;20072;-75
2021/05/07 03:29:07;;;;;;;2.00;0.43;;;8.60;99.90;;;;;;4945844;28;20095;-75
2021/05/07 03:31:34;;;;;;;1.48;0.30;;;8.60;99.90;;;;;;4954040;28;20084;-75
2021/05/07 03:34:01;;;;;;;0.75;0.40;;;8.50;99.90;;;;;;4968049;28;20078;-75
2021/05/07 03:36:27;;;;;;;0.93;0.20;;;8.50;99.90;;;;;;4942502;28;20094;-75
2021/05/07 03:38:52;;;;;;;2.75;0.25;;;8.50;99.90;;;;;;4969115;28;20111;-76
2021/05/07 03:41:18;;;;;;;0.80;0.25;;;8.40;99.90;;;;;;4949308;29;20537;-75
2021/05/07 03:43:43;;;;;;;0.40;0.13;;;8.40;99.90;;;;;;4962757;28;20399;-75
2021/05/07 03:46:09;;;;;;;0.93;0.30;;;8.40;99.90;;;;;;4958578;28;20158;-75
2021/05/07 03:48:34;;;;;;;0.40;0.30;;;8.40;99.90;;;;;;4958309;28;20106;-76
2021/05/07 03:51:00;;;;;;;0.63;0.22;;;8.40;99.90;;;;;;4967672;28;20674;-76
2021/05/07 03:53:26;;;;;;;1.58;0.45;;;8.30;99.90;;;;;;4966006;28;20076;-75
2021/05/07 03:55:51;;;;;;;1.73;0.40;;;8.30;99.90;;;;;;4954825;28;20134;-76
2021/05/07 03:58:17;;;;;;;0.50;0.20;;;8.30;99.90;;;;;;4951065;28;20087;-75
2021/05/07 04:00:44;;;;;;;1.40;0.40;;;8.40;99.90;;;;;;4953016;28;20084;-75
2021/05/07 04:03:10;;;;;;;0.85;0.22;;;8.30;99.90;;;;;;4949735;28;20536;-75
2021/05/07 04:05:36;;;;;;;0.38;0.22;;;8.30;99.90;;;;;;4967952;28;20094;-75
2021/05/07 04:08:14;;;;;;;0.50;0.20;;;8.40;99.90;;;;;;4949164;28;20196;-75
2021/05/07 04:10:45;;;;;;;0.45;0.20;;;8.40;99.90;;;;;;4955327;28;20075;-76
2021/05/07 04:15:38;;;;;;;2.15;1.02;;;8.50;99.90;;;;;;4969485;28;20174;-75
2021/05/07 04:18:03;;;;;;;2.63;0.40;;;8.50;99.90;;;;;;4961292;28;20166;-75
2021/05/07 04:20:29;;;;;;;0.80;0.30;;;8.50;99.90;;;;;;4961932;28;20076;-75
2021/05/07 04:22:55;;;;;;;2.13;0.40;;;8.50;99.90;;;;;;4972549;28;20067;-75
2021/05/07 04:25:21;;;;;;;0.63;0.22;;;8.50;99.90;;;;;;4968570;28;20873;-75
2021/05/07 04:27:46;;;;;;;2.28;0.30;;;8.50;99.90;;;;;;4952063;28;20564;-75
2021/05/07 04:30:12;;;;;;;2.40;0.52;;;8.40;99.90;;;;;;4952941;28;20106;-75
2021/05/07 04:32:38;;;;;;;2.28;0.88;;;8.40;99.90;;;;;;4951844;28;20091;-75
2021/05/07 04:35:04;;;;;;;1.35;0.30;;;8.40;99.90;;;;;;4952656;28;20087;-75
2021/05/07 04:37:30;;;;;;;2.40;0.50;;;8.40;99.90;;;;;;4952848;28;20099;-75
2021/05/07 04:39:55;;;;;;;1.13;0.40;;;8.40;99.90;;;;;;4967848;28;20170;-75
2021/05/07 04:42:21;;;;;;;3.80;0.70;;;8.40;99.90;;;;;;4957581;28;20095;-75
2021/05/07 04:44:47;;;;;;;1.40;0.50;;;8.30;99.90;;;;;;4958285;28;20150;-75
2021/05/07 04:47:12;;;;;;;3.05;1.05;;;8.40;99.90;;;;;;4959086;28;20154;-75
2021/05/07 04:49:38;;;;;;;2.35;0.57;;;8.30;99.90;;;;;;4959524;28;20111;-75
2021/05/07 04:52:04;;;;;;;2.35;0.82;;;8.30;99.90;;;;;;4966134;28;20079;-75
2021/05/07 04:54:33;;;;;;;2.67;0.82;;;8.30;99.90;;;;;;4970610;28;20094;-75
2021/05/07 04:56:59;;;;;;;1.88;1.00;;;8.30;99.90;;;;;;4958009;28;20138;-75
2021/05/07 04:59:25;;;;;;;1.95;0.50;;;8.30;99.90;;;;;;4953004;28;20099;-75
2021/05/07 05:01:51;;;;;;;2.38;0.60;;;8.40;99.90;;;;;;4963368;28;20078;-74
2021/05/07 05:04:16;;;;;;;3.00;0.60;;;8.30;99.90;;;;;;4964322;28;20087;-75
2021/05/07 05:06:43;;;;;;;1.77;0.50;;;8.30;99.90;;;;;;4957960;28;20606;-75
2021/05/07 05:09:08;;;;;;;1.60;0.50;;;8.40;99.90;;;;;;4954292;28;20248;-75
2021/05/07 05:11:34;;;;;;;4.32;0.77;;;8.40;99.90;;;;;;4952335;28;20193;-76
2021/05/07 05:14:00;;;;;;;2.58;0.70;;;8.40;99.90;;;;;;4969161;28;20079;-75
2021/05/07 05:16:26;;;;;;;1.85;0.30;;;8.40;99.90;;;;;;4966654;28;20117;-75
2021/05/07 05:18:51;;;;;;;4.88;0.80;;;8.30;99.90;;;;;;4952764;28;20092;-82
2021/05/07 05:21:17;;;;;;;2.53;1.05;;;8.30;99.90;;;;;;4951366;28;20421;-75
2021/05/07 05:23:43;;;;;;;3.80;1.02;;;8.30;99.90;;;;;;4960784;28;20691;-75
2021/05/07 05:26:09;;;;;;;2.03;0.65;;;8.30;99.90;;;;;;4949217;28;20499;-76
2021/05/07 05:28:36;;;;;;;1.45;0.68;;;8.30;99.90;;;;;;4953038;28;20100;-76
2021/05/07 05:31:02;;;;;;;3.45;0.60;;;8.30;99.90;;;;;;4953538;28;20072;-75
2021/05/07 05:33:28;;;;;;;2.72;0.50;;;8.20;99.90;;;;;;4960359;28;20717;-75
2021/05/07 05:35:54;;;;;;;3.13;0.60;;;8.20;99.90;;;;;;4962536;28;20137;-78
2021/05/07 05:38:20;;;;;;;5.53;2.20;;;8.20;99.90;;;;;;4955835;28;20158;-75
2021/05/07 05:40:47;;;;;;;3.10;1.08;;;8.20;99.90;;;;;;4958416;28;20079;-75
2021/05/07 05:43:14;;;;;;;4.47;1.67;;;8.20;99.90;;;;;;4956534;28;20650;-75
2021/05/07 05:45:40;;;;;;;2.53;1.25;;;8.10;99.90;;;;;;4965496;28;20485;-75
2021/05/07 05:48:08;;;;;;;6.25;3.28;;;8.10;99.90;;;;;;4937849;28;20166;-75
2021/05/07 05:50:35;;;;;;;6.60;1.50;;;8.10;99.90;;;;;;4957504;28;20552;-74
2021/05/07 05:53:00;;;;;;;1.88;1.05;;;8.00;99.90;;;;;;4956902;28;20080;-73
2021/05/07 05:55:26;;;;;;;2.30;0.60;;;8.00;99.90;;;;;;4953703;28;20087;-75
2021/05/07 05:57:52;;;;;;;1.85;0.40;;;8.10;99.90;;;;;;4936062;28;20090;-75
2021/05/07 06:00:18;;;;;;;1.45;0.55;;;8.10;99.90;;;;;;4952623;28;20092;-75
2021/05/07 06:02:44;;;;;;;1.83;0.60;;;8.00;99.90;;;;;;4955736;28;20086;-74
2021/05/07 06:05:10;;;;;;;3.05;1.10;;;8.00;99.90;;;;;;4948757;28;20440;-75
2021/05/07 06:07:37;;;;;;;0.75;0.40;;;7.90;99.90;;;;;;4954119;28;20079;-74
2021/05/07 06:10:04;;;;;;;1.08;0.70;;;7.90;99.90;;;;;;4966207;28;20686;-75
2021/05/07 06:12:30;;;;;;;2.97;0.63;;;7.90;99.90;;;;;;4935644;28;20079;-75
2021/05/07 06:14:55;;;;;;;2.20;0.25;;;7.90;99.90;;;;;;4964557;28;20082;-76
2021/05/07 06:17:21;;;;;;;1.45;0.65;;;7.90;99.90;;;;;;4952668;28;20107;-75
2021/05/07 06:19:47;;;;;;;1.50;0.50;;;8.00;99.90;;;;;;4959515;28;20095;-75
2021/05/07 06:22:12;;;;;;;2.97;0.50;;;7.80;99.90;;;;;;4954913;28;20138;-75
2021/05/07 06:24:38;;;;;;;1.23;0.35;;;7.80;99.90;;;;;;4958720;28;20080;-75
2021/05/07 06:27:04;;;;;;;0.80;0.35;;;7.80;99.90;;;;;;4958006;28;20456;-75
2021/05/07 06:29:29;;;;;;;0.75;0.30;;;7.90;99.90;;;;;;4948962;28;20130;-76
2021/05/07 06:31:55;;;;;;;0.30;0.30;;;7.90;99.90;;;;;;4964031;28;20190;-75
2021/05/07 06:34:21;;;;;;;1.83;0.40;;;7.90;99.90;;;;;;4964682;28;20080;-75
2021/05/07 06:36:46;;;;;;;0.57;0.50;;;7.90;99.90;;;;;;4963699;28;20488;-75
2021/05/07 06:39:12;;;;;;;2.75;0.60;;;7.80;99.90;;;;;;4961373;28;20572;-75
2021/05/07 06:41:38;;;;;;;1.00;0.30;;;7.90;99.90;;;;;;4969276;28;20158;-76
2021/05/07 06:44:05;;;;;;;0.30;0.10;;;8.00;99.90;;;;;;4969961;28;20071;-75
2021/05/07 06:46:30;;;;;;;0.68;0.10;;;8.00;99.90;;;;;;4963450;28;20202;-75
2021/05/07 06:48:56;;;;;;;0.38;0.20;;;8.10;99.90;;;;;;4959601;28;20507;-75
2021/05/07 06:51:21;;;;;;;0.90;0.40;;;8.10;99.90;;;;;;4967514;28;20605;-75
2021/05/07 06:53:47;;;;;;;1.85;0.20;;;8.10;99.90;;;;;;4961937;28;20914;-76
2021/05/07 06:56:12;;;;;;;1.65;0.30;;;8.30;99.90;;;;;;4970055;28;20555;-76
2021/05/07 06:58:40;;;;;;;0.30;0.28;;;8.30;99.90;;;;;;4969253;28;20604;-76
2021/05/07 07:01:05;;;;;;;1.25;0.30;;;8.40;99.90;;;;;;4955670;28;20079;-75
2021/05/07 07:03:31;;;;;;;0.50;0.32;;;8.50;99.90;;;;;;4965593;28;20067;-76
2021/05/07 07:05:57;;;;;;;2.33;0.40;;;8.50;99.90;;;;;;4942345;28;20454;-76
2021/05/07 07:08:22;;;;;;;2.08;0.57;;;8.70;99.90;;;;;;4952351;28;20095;-78
2021/05/07 07:10:48;;;;;;;2.05;0.70;;;8.60;99.90;;;;;;4948596;28;20571;-76
2021/05/07 07:13:13;;;;;;;1.05;0.50;;;8.60;99.90;;;;;;4950851;28;20083;-77
2021/05/07 07:15:39;;;;;;;2.10;0.40;;;8.80;99.90;;;;;;4946664;28;20413;-76
2021/05/07 07:18:04;;;;;;;0.77;0.20;;;8.80;99.90;;;;;;4967741;28;20147;-76
2021/05/07 07:20:30;;;;;;;0.15;0.15;;;8.80;99.90;;;;;;4969486;28;20083;-77
2021/05/07 07:23:00;;;;;;;0.68;0.20;;;8.80;99.90;;;;;;4959880;28;20076;-76
2021/05/07 07:25:27;;;;;;;0.73;0.20;;;8.80;99.90;;;;;;4955918;28;20084;-77
2021/05/07 07:27:53;;;;;;;2.53;0.80;;;8.80;99.90;;;;;;4965222;28;20079;-78
2021/05/07 07:30:19;;;;;;;1.40;0.43;;;8.70;99.90;;;;;;4963584;28;20083;-77
2021/05/07 07:32:44;;;;;;;1.17;0.40;;;8.70;99.90;;;;;;4964374;28;20150;-78
2021/05/07 07:35:11;;;;;;;2.25;0.60;;;8.70;99.90;;;;;;4954725;28;20180;-77
2021/05/07 07:37:37;;;;;;;0.68;0.30;;;8.70;99.90;;;;;;4951410;28;20162;-76
2021/05/07 07:40:04;;;;;;;5.35;0.82;;;8.90;99.90;;;;;;4965428;28;20580;-77
2021/05/07 07:42:30;;;;;;;2.25;1.05;;;8.80;99.90;;;;;;4968474;28;20071;-77
2021/05/07 07:44:56;;;;;;;1.55;0.57;;;8.80;99.90;;;;;;4958525;28;20086;-76
2021/05/07 07:47:21;;;;;;;1.05;0.38;;;8.80;99.90;;;;;;4959117;28;20175;-76
2021/05/07 07:49:47;;;;;;;3.30;1.42;;;8.70;99.90;;;;;;4962865;28;20096;-76
2021/05/07 07:52:13;;;;;;;1.50;0.55;;;8.70;99.90;;;;;;4948954;28;20079;-75
2021/05/07 07:54:39;;;;;;;2.90;1.10;;;8.60;99.90;;;;;;4969047;28;20194;-75
2021/05/07 07:57:05;;;;;;;3.28;0.95;;;8.70;99.90;;;;;;4954081;28;20194;-76
2021/05/07 07:59:30;;;;;;;1.02;0.55;;;8.70;99.90;;;;;;4969227;28;20095;-75
2021/05/07 08:01:56;;;;;;;3.97;1.77;;;8.50;99.90;;;;;;4961193;28;20115;-75
2021/05/07 08:04:22;;;;;;;3.67;2.10;;;8.60;99.90;;;;;;4954758;28;20071;-75
2021/05/07 08:06:47;;;;;;;3.08;1.58;;;8.70;99.90;;;;;;4958762;28;20135;-75
2021/05/07 08:09:13;;;;;;;1.02;0.75;;;8.70;99.90;;;;;;4951060;28;20167;-75
2021/05/07 08:11:39;;;;;;;1.35;0.80;;;8.60;99.90;;;;;;4954273;28;20661;-76
2021/05/07 08:14:05;;;;;;;3.85;2.30;;;8.10;99.90;;;;;;4954932;28;20068;-77
2021/05/07 08:16:31;;;;;;;2.22;1.58;;;7.90;99.90;;;;;;4937697;28;20106;-76
2021/05/07 08:18:57;;;;;;;1.80;1.70;;;7.70;99.90;;;;;;4943781;28;20090;-75
2021/05/07 08:21:24;;;;;;;2.63;1.63;;;7.60;99.90;;;;;;4957914;28;20078;-75
2021/05/07 08:23:51;;;;;;;0.70;0.70;;;7.60;99.90;;;;;;4957551;28;20142;-75
2021/05/07 08:26:18;;;;;;;1.10;0.50;;;7.50;99.90;;;;;;4954504;28;20123;-75
2021/05/07 08:28:44;;;;;;;0.85;0.85;;;7.40;99.90;;;;;;4957676;28;20102;-75
2021/05/07 08:31:11;;;;;;;0.98;0.70;;;7.30;99.90;;;;;;4971666;28;20075;-75
2021/05/07 08:33:36;;;;;;;0.88;0.60;;;7.20;99.90;;;;;;4969879;28;20095;-73
2021/05/07 08:36:02;;;;;;;1.10;0.73;;;7.20;99.90;;;;;;4954924;28;20094;-75
2021/05/07 08:38:28;;;;;;;0.65;0.30;;;7.10;99.90;;;;;;4941699;28;20096;-74
2021/05/07 08:40:53;;;;;;;0.35;0.30;;;7.10;99.90;;;;;;4950119;28;20095;-73
2021/05/07 08:43:19;;;;;;;0.52;0.43;;;7.00;99.90;;;;;;4966195;28;20071;-73
2021/05/07 08:45:46;;;;;;;0.40;0.30;;;6.90;99.90;;;;;;4954227;28;20080;-74
2021/05/07 08:48:12;;;;;;;0.47;0.30;;;6.90;99.90;;;;;;4950649;28;20595;-74
2021/05/07 08:50:38;;;;;;;0.43;0.40;;;6.90;99.90;;;;;;4957090;28;20091;-75
2021/05/07 08:53:03;;;;;;;0.68;0.40;;;7.00;99.90;;;;;;4935737;29;20080;-75
2021/05/07 08:55:29;;;;;;;0.70;0.20;;;6.80;99.90;;;;;;4953047;28;20083;-74
2021/05/07 08:57:55;;;;;;;0.50;0.40;;;6.80;99.90;;;;;;4963134;28;20261;-76
2021/05/07 09:00:21;;;;;;;0.30;0.25;;;6.80;99.90;;;;;;4954312;28;20090;-74
2021/05/07 09:02:47;;;;;;;1.40;0.30;;;6.80;99.90;;;;;;4955897;28;20072;-74
2021/05/07 09:05:13;;;;;;;3.60;1.75;;;6.90;99.90;;;;;;4968023;28;20470;-75
2021/05/07 09:07:39;;;;;;;2.75;1.05;;;6.80;99.90;;;;;;4960590;28;20076;-75
2021/05/07 09:10:06;;;;;;;2.17;1.15;;;6.80;99.90;;;;;;4964851;28;20102;-74
2021/05/07 09:12:33;;;;;;;3.78;1.50;;;6.80;99.90;;;;;;4954327;28;20078;-75
2021/05/07 09:15:00;;;;;;;6.07;2.67;;;6.70;99.90;;;;;;4963383;28;20090;-76
2021/05/07 09:17:28;;;;;;;6.40;2.63;;;6.80;99.90;;;;;;4954719;28;20169;-75
2021/05/07 09:20:14;;;;;;;3.20;1.98;;;6.70;99.90;;;;;;4962807;28;20109;-76
2021/05/07 09:22:41;;;;;;;2.25;1.23;;;6.90;99.90;;;;;;4973356;28;20728;-75
2021/05/07 09:25:13;;;;;;;2.05;0.70;;;6.70;99.90;;;;;;4958283;28;20083;-75
2021/05/07 09:27:40;;;;;;;0.40;0.20;;;6.70;99.90;;;;;;4967458;28;20086;-75
2021/05/07 09:30:22;;;;;;;0.52;0.30;;;6.60;99.90;;;;;;4969771;28;20088;-77
2021/05/07 09:32:53;;;;;;;0.40;0.30;;;6.60;99.90;;;;;;4963337;28;20121;-77
2021/05/07 09:35:20;;;;;;;0.50;0.30;;;6.70;99.90;;;;;;4964710;28;20068;-77
2021/05/07 09:37:47;;;;;;;0.22;0.22;;;6.80;99.90;;;;;;4958025;28;20083;-75
2021/05/07 09:40:18;;;;;;;0.98;0.40;;;7.00;99.90;;;;;;4962352;28;20094;-74
2021/05/07 09:42:45;;;;;;;1.15;0.68;;;7.20;99.90;;;;;;4956400;28;20086;-75
2021/05/07 09:45:39;;;;;;;0.75;0.40;;;7.10;99.90;;;;;;4954619;28;20114;-73
2021/05/07 09:48:15;;;;;;;0.60;0.40;;;7.20;99.90;;;;;;4963515;28;20233;-76
2021/05/07 09:50:41;;;;;;;0.35;0.20;;;7.20;99.90;;;;;;4966903;28;20071;-76
2021/05/07 09:53:09;;;;;;;0.85;0.47;;;7.20;99.90;;;;;;4970820;28;20086;-77
2021/05/07 09:55:34;;;;;;;3.90;2.15;;;7.20;99.90;;;;;;4953695;28;20525;-75
2021/05/07 09:58:02;;;;;;;3.75;2.00;;;7.40;99.90;;;;;;4953011;28;20076;-76
2021/05/07 10:00:28;;;;;;;6.65;3.33;;;7.40;99.90;;;;;;4954463;28;20106;-76
2021/05/07 10:02:55;;;;;;;23.40;10.68;;;7.50;99.90;;;;;;4947394;28;20079;-76
2021/05/07 10:05:21;;;;;;;1.65;0.63;;;7.60;99.90;;;;;;4969898;28;20097;-75
2021/05/07 10:07:47;;;;;;;4.55;2.30;;;7.60;99.90;;;;;;4954613;28;20080;-78
2021/05/07 10:10:13;;;;;;;7.35;4.78;;;7.50;99.90;;;;;;4973908;28;20186;-76
2021/05/07 10:12:43;;;;;;;13.13;8.18;;;7.50;99.90;;;;;;4955272;28;20090;-74
2021/05/07 10:15:09;;;;;;;1.20;0.88;;;7.60;99.90;;;;;;4962330;28;20079;-80
2021/05/07 10:17:35;;;;;;;0.98;0.52;;;7.80;99.90;;;;;;4942477;28;20099;-78
2021/05/07 10:20:01;;;;;;;1.08;0.95;;;7.80;99.90;;;;;;4963033;28;20463;-78
2021/05/07 10:22:41;;;;;;;0.60;0.40;;;7.80;99.90;;;;;;4951394;28;20126;-76
2021/05/07 10:25:22;;;;;;;2.78;2.38;;;7.80;99.90;;;;;;4963525;28;20118;-74
2021/05/07 10:27:49;;;;;;;0.73;0.70;;;7.70;99.90;;;;;;4950358;29;20107;-74
2021/05/07 10:30:29;;;;;;;1.77;1.50;;;7.70;99.90;;;;;;4950508;28;20488;-75
2021/05/07 10:33:03;;;;;;;0.60;0.40;;;7.80;99.90;;;;;;4950014;28;20118;-78
2021/05/07 10:35:30;;;;;;;0.47;0.32;;;7.90;99.90;;;;;;4956516;28;20099;-77
2021/05/07 10:38:13;;;;;;;1.70;1.40;;;7.80;99.90;;;;;;4969533;28;20086;-76
2021/05/07 10:40:39;;;;;;;1.50;1.27;;;7.90;99.90;;;;;;4965825;28;20598;-78
2021/05/07 10:43:06;;;;;;;1.10;0.80;;;7.90;99.90;;;;;;4951903;28;20075;-75
2021/05/07 10:45:42;;;;;;;0.60;0.50;;;8.00;99.90;;;;;;4953724;28;20075;-80
2021/05/07 10:48:26;;;;;;;0.63;0.63;;;8.00;99.90;;;;;;4958724;28;20076;-79
2021/05/07 10:50:57;;;;;;;1.08;0.82;;;8.00;99.90;;;;;;4942998;28;20079;-78
2021/05/07 10:53:43;;;;;;;0.80;0.80;;;7.90;99.90;;;;;;4956127;28;20083;-76
2021/05/07 10:56:18;;;;;;;0.70;0.65;;;7.90;99.90;;;;;;4968327;28;20138;-74
2021/05/07 10:58:44;;;;;;;0.93;0.77;;;8.00;99.90;;;;;;4970023;28;20082;-75
2021/05/07 11:01:27;;;;;;;2.30;0.82;;;7.90;99.90;;;;;;4962163;28;20076;-80
2021/05/07 11:04:13;;;;;;;1.15;1.05;;;8.00;99.90;;;;;;4962939;28;20086;-78
2021/05/07 11:06:42;;;;;;;1.17;0.80;;;8.10;99.90;;;;;;4956653;28;20118;-77
2021/05/07 11:09:21;;;;;;;1.40;0.90;;;8.10;99.90;;;;;;4966318;28;20122;-77
2021/05/07 11:11:49;;;;;;;1.08;0.70;;;8.10;99.90;;;;;;4962965;28;20638;-76
2021/05/07 11:14:21;;;;;;;1.08;0.93;;;8.10;99.90;;;;;;4966327;28;20480;-76
2021/05/07 11:16:48;;;;;;;1.00;0.80;;;8.10;99.90;;;;;;4958578;28;20548;-75
2021/05/07 11:19:43;;;;;;;1.77;1.40;;;8.10;99.90;;;;;;4950865;28;20098;-76
2021/05/07 11:22:08;;;;;;;1.45;1.05;;;8.20;99.90;;;;;;4948567;28;20094;-76
2021/05/07 11:24:36;;;;;;;1.67;1.58;;;8.30;99.90;;;;;;4954844;28;20080;-74
2021/05/07 11:27:18;;;;;;;1.48;1.30;;;8.40;99.90;;;;;;4961297;28;20111;-76
2021/05/07 11:29:44;;;;;;;2.15;1.23;;;8.40;99.90;;;;;;4955770;28;20100;-76
2021/05/07 11:32:18;;;;;;;7.63;4.10;;;8.60;99.90;;;;;;4964912;28;20122;-75
2021/05/07 11:35:11;;;;;;;1.50;1.20;;;8.70;99.90;;;;;;4937185;28;20171;-74
2021/05/07 11:37:39;;;;;;;1.77;1.33;;;8.80;99.90;;;;;;4966719;28;20563;-78
2021/05/07 11:40:12;;;;;;;1.52;1.00;;;8.80;99.90;;;;;;4959037;28;20107;-79
2021/05/07 11:42:43;;;;;;;1.58;1.13;;;8.90;99.90;;;;;;4956948;28;20122;-78
2021/05/07 11:45:18;;;;;;;1.48;1.20;;;8.90;99.90;;;;;;4963291;28;20080;-78
2021/05/07 11:47:44;;;;;;;1.60;1.40;;;8.90;99.90;;;;;;4963108;28;20438;-74
2021/05/07 11:50:17;;;;;;;1.50;1.40;;;8.70;99.90;;;;;;4958334;28;20083;-76
2021/05/07 11:52:44;;;;;;;3.30;1.23;;;8.70;99.90;;;;;;4966534;28;20086;-76
2021/05/07 11:55:32;;;;;;;1.60;1.35;;;8.50;99.90;;;;;;4967972;28;20090;-76
2021/05/07 11:58:03;;;;;;;1.58;1.42;;;8.80;99.90;;;;;;4957513;28;20134;-76
2021/05/07 12:00:30;;;;;;;2.88;1.50;;;9.10;99.90;;;;;;4966518;28;20067;-76
2021/05/07 12:02:59;;;;;;;1.60;1.35;;;9.00;99.90;;;;;;4970620;28;20483;-76
2021/05/07 12:05:35;;;;;;;1.90;1.70;;;9.00;99.90;;;;;;4968362;28;20106;-76
2021/05/07 12:08:02;;;;;;;3.28;1.52;;;9.00;99.90;;;;;;4956445;28;20087;-75
2021/05/07 12:10:29;;;;;;;2.90;1.77;;;8.90;99.90;;;;;;4948915;28;20622;-75
2021/05/07 12:12:58;;;;;;;2.55;1.63;;;8.80;99.90;;;;;;4964265;28;20087;-77
2021/05/07 12:15:27;;;;;;;4.00;1.83;;;8.80;99.90;;;;;;4965714;28;20079;-76
2021/05/07 12:17:54;;;;;;;1.55;1.45;;;8.80;99.90;;;;;;4973063;28;20079;-76
2021/05/07 12:20:22;;;;;;;1.48;1.30;;;8.70;99.90;;;;;;4959890;28;20559;-79
2021/05/07 12:22:53;;;;;;;2.60;1.90;;;8.70;99.90;;;;;;4951974;28;20075;-75
2021/05/07 12:25:27;;;;;;;1.63;1.52;;;8.70;99.90;;;;;;4955438;28;20200;-74
2021/05/07 12:27:54;;;;;;;2.03;1.70;;;8.70;99.90;;;;;;4951053;28;20078;-76
2021/05/07 12:30:30;;;;;;;3.55;1.80;;;8.70;99.90;;;;;;4954658;28;20118;-76
2021/05/07 12:33:14;;;;;;;2.50;1.98;;;8.80;99.90;;;;;;4962901;28;20131;-77
2021/05/07 12:35:44;;;;;;;3.22;1.90;;;8.90;99.90;;;;;;4961532;28;20199;-75
2021/05/07 12:38:20;;;;;;;3.55;2.20;;;8.90;99.90;;;;;;4954762;28;20548;-75
2021/05/07 12:40:46;;;;;;;2.65;2.45;;;9.00;99.90;;;;;;4953305;28;20075;-76
2021/05/07 12:43:12;;;;;;;2.47;2.25;;;9.10;99.90;;;;;;4955681;28;20075;-75
2021/05/07 12:45:38;;;;;;;4.10;2.58;;;9.20;99.90;;;;;;4966059;28;20159;-79
2021/05/07 12:48:04;;;;;;;2.10;1.90;;;9.30;99.90;;;;;;4948958;28;20098;-76
2021/05/07 12:50:30;;;;;;;2.65;2.17;;;9.50;99.90;;;;;;4965605;28;20800;-75
2021/05/07 12:52:55;;;;;;;2.63;2.15;;;9.60;99.90;;;;;;4965919;28;20075;-75
2021/05/07 12:55:21;;;;;;;4.15;3.50;;;9.70;99.90;;;;;;4972050;28;20070;-76
2021/05/07 12:57:47;;;;;;;2.90;2.47;;;9.60;99.90;;;;;;4952026;28;20087;-76
2021/05/07 13:00:13;;;;;;;4.03;2.60;;;9.50;99.90;;;;;;4961533;28;20123;-75
2021/05/07 13:02:39;;;;;;;4.25;2.53;;;9.40;99.90;;;;;;4966434;28;20080;-77